Time;durP1;ratioP1;P1;durP2;ratioP2;P2;SDS_P1;SDS_P2;PMS_P1;PMS_P2;Temp;Humidity;BMP_temperature;BMP_pressure;BME280_temperature;BME280_humidity;BME280_pressure;Samples;Min_cycle;Max_cycle;Signal;HPM_P1;HPM_P2
2022/10/23 00:01:30;;;;;;;13.50;7.88;;;;;;;13.13;93.44;101239.31;5055316;28;20033;-53
2022/10/23 00:04:01;;;;;;;13.27;7.07;;;;;;;13.10;92.92;101240.38;5046257;28;20393;-54
2022/10/23 00:06:29;;;;;;;9.45;6.53;;;;;;;13.03;93.26;101236.41;5052886;28;20044;-54
2022/10/23 00:08:55;;;;;;;9.30;6.53;;;;;;;13.07;92.76;101237.06;5053390;28;20045;-54
2022/10/23 00:11:24;;;;;;;15.55;7.80;;;;;;;12.98;93.24;101230.53;5054843;28;20032;-54
2022/10/23 00:13:54;;;;;;;12.18;8.13;;;;;;;13.09;92.94;101237.81;5043412;28;20025;-54
2022/10/23 00:16:19;;;;;;;;;;;;;;;13.21;91.66;101242.34;5049897;28;20398;-54
2022/10/23 00:18:45;;;;;;;12.90;7.30;;;;;;;13.13;92.99;101232.16;5054769;28;19909;-55
2022/10/23 00:21:15;;;;;;;16.05;6.88;;;;;;;13.09;92.86;101240.50;5055065;28;20036;-54
2022/10/23 00:23:41;;;;;;;14.77;7.53;;;;;;;13.02;93.16;101242.69;5055036;28;20025;-55
2022/10/23 00:26:10;;;;;;;12.57;6.97;;;;;;;12.98;93.11;101224.34;5054302;28;20074;-54
2022/10/23 00:28:36;;;;;;;13.88;6.60;;;;;;;13.13;92.85;101233.97;5035573;28;20117;-54
2022/10/23 00:31:04;;;;;;;11.18;7.38;;;;;;;13.04;92.79;101238.13;5033071;28;20485;-54
2022/10/23 00:33:30;;;;;;;16.48;7.72;;;;;;;13.06;93.12;101236.22;5034685;28;20408;-54
2022/10/23 00:35:56;;;;;;;14.07;6.55;;;;;;;12.98;92.85;101221.66;5047673;28;20033;-55
2022/10/23 00:38:21;;;;;;;16.73;7.60;;;;;;;13.00;92.94;101228.63;5054869;28;20047;-54
2022/10/23 00:40:47;;;;;;;15.48;6.72;;;;;;;12.93;92.90;101228.16;5053933;28;20163;-54
2022/10/23 00:43:24;;;;;;;14.13;7.32;;;;;;;13.00;93.35;101225.06;5052415;28;20033;-54
2022/10/23 00:45:50;;;;;;;11.43;6.63;;;;;;;13.01;93.07;101229.47;5051799;28;20144;-54
2022/10/23 00:48:16;;;;;;;10.45;7.15;;;;;;;13.04;92.61;101221.25;5054678;28;20175;-54
2022/10/23 00:50:42;;;;;;;12.90;6.90;;;;;;;13.00;93.53;101225.06;5054345;28;20090;-54
2022/10/23 00:53:11;;;;;;;12.75;6.65;;;;;;;12.91;93.59;101215.84;5035345;28;20037;-54
2022/10/23 00:55:40;;;;;;;12.88;7.20;;;;;;;12.92;93.81;101228.28;5044594;28;20028;-54
2022/10/23 00:58:06;;;;;;;12.17;7.20;;;;;;;12.96;93.65;101224.44;5054488;28;20028;-54
2022/10/23 01:00:44;;;;;;;17.40;7.22;;;;;;;12.89;94.12;101215.97;5053861;28;20020;-55
2022/10/23 01:03:14;;;;;;;13.38;7.97;;;;;;;12.93;94.54;101221.97;5052050;28;20044;-54
2022/10/23 01:05:55;;;;;;;13.18;6.60;;;;;;;12.94;94.58;101213.88;5053738;28;20112;-55
2022/10/23 01:08:51;;;;;;;10.68;6.65;;;;;;;13.00;94.02;101219.72;5053665;28;20133;-54
2022/10/23 01:11:19;;;;;;;13.75;6.93;;;;;;;12.89;94.22;101217.78;5052588;28;20224;-55
2022/10/23 01:13:56;;;;;;;13.73;7.15;;;;;;;12.93;94.22;101217.47;5052807;28;20025;-54
2022/10/23 01:17:03;;;;;;;13.55;7.20;;;;;;;12.93;94.11;101213.94;5053418;28;20025;-54
2022/10/23 01:19:41;;;;;;;12.15;6.80;;;;;;;12.90;94.04;101209.66;5053028;28;20060;-54
2022/10/23 01:22:46;;;;;;;19.27;7.05;;;;;;;12.94;94.07;101211.19;5054063;28;20082;-54
2022/10/23 01:25:22;;;;;;;12.32;6.47;;;;;;;12.90;94.02;101217.69;5051042;28;20033;-54
2022/10/23 01:27:55;;;;;;;15.82;7.35;;;;;;;12.88;94.21;101210.72;5052261;28;20108;-55
2022/10/23 01:30:21;;;;;;;18.77;6.72;;;;;;;12.91;94.30;101198.06;5053411;28;20040;-54
2022/10/23 01:32:51;;;;;;;16.10;6.63;;;;;;;12.90;94.06;101206.16;5046643;28;20108;-53
2022/10/23 01:35:26;;;;;;;11.95;7.10;;;;;;;12.84;93.75;101198.56;5043033;28;20083;-54
2022/10/23 01:38:02;;;;;;;12.60;6.45;;;;;;;12.84;93.87;101191.41;5040751;28;20071;-55
2022/10/23 01:40:38;;;;;;;18.95;7.68;;;;;;;12.80;94.04;101195.25;5033294;28;20379;-54
2022/10/23 01:43:10;;;;;;;17.33;7.00;;;;;;;12.81;93.91;101188.09;5033790;28;20033;-53
2022/10/23 01:45:44;;;;;;;13.90;7.32;;;;;;;12.77;93.68;101184.78;5034549;28;20108;-54
2022/10/23 01:48:14;;;;;;;13.70;6.55;;;;;;;12.70;93.82;101180.78;5051630;28;20171;-54
2022/10/23 01:50:42;;;;;;;9.98;6.80;;;;;;;12.71;93.77;101175.34;5051609;28;20036;-53
2022/10/23 01:53:07;;;;;;;16.90;7.22;;;;;;;12.62;93.86;101159.13;5052258;28;20124;-54
2022/10/23 01:55:35;;;;;;;11.02;6.57;;;;;;;12.66;94.09;101164.13;5052796;28;20075;-54
2022/10/23 01:58:01;;;;;;;12.20;6.28;;;;;;;12.66;93.99;101168.63;5052784;28;20037;-54
2022/10/23 02:00:27;;;;;;;13.95;7.20;;;;;;;12.68;93.77;101164.03;5052427;28;20059;-54
2022/10/23 02:02:57;;;;;;;16.63;6.97;;;;;;;12.62;94.33;101170.63;5037436;28;20366;-53
2022/10/23 02:05:28;;;;;;;16.17;7.50;;;;;;;12.58;94.43;101176.25;5032779;28;20476;-54
2022/10/23 02:07:54;;;;;;;11.32;7.07;;;;;;;12.62;94.32;101175.13;5051816;28;20060;-54
2022/10/23 02:10:28;;;;;;;13.90;7.70;;;;;;;12.54;94.57;101172.09;5052700;28;20103;-54
2022/10/23 02:13:06;;;;;;;17.02;6.95;;;;;;;12.57;94.81;101167.41;5051251;28;20028;-54
2022/10/23 02:15:53;;;;;;;16.38;7.63;;;;;;;12.64;94.66;101167.84;5033229;28;20037;-54
2022/10/23 02:18:38;;;;;;;18.17;8.02;;;;;;;12.57;95.40;101166.56;5035830;28;20021;-54
2022/10/23 02:21:11;;;;;;;17.38;8.40;;;;;;;12.60;95.31;101169.88;5051533;28;20028;-54
2022/10/23 02:23:44;;;;;;;13.35;8.23;;;;;;;12.64;95.71;101167.84;5052833;28;20056;-54
2022/10/23 02:26:16;;;;;;;15.95;8.77;;;;;;;12.57;95.80;101166.56;5051937;28;20033;-53
2022/10/23 02:28:49;;;;;;;14.65;7.93;;;;;;;12.55;95.54;101158.63;5044698;28;20057;-54
2022/10/23 02:31:18;;;;;;;17.35;7.60;;;;;;;12.57;95.28;101153.22;5032676;28;20029;-54
2022/10/23 02:33:45;;;;;;;16.75;8.15;;;;;;;12.62;95.21;101151.97;5032749;28;20021;-54
2022/10/23 02:36:11;;;;;;;11.10;7.47;;;;;;;12.64;95.36;101150.03;5038790;28;20021;-54
2022/10/23 02:38:39;;;;;;;13.98;7.72;;;;;;;12.63;95.28;101147.47;5052643;28;20392;-54
2022/10/23 02:41:16;;;;;;;14.25;7.70;;;;;;;12.61;95.69;101133.38;5052174;28;20021;-54
2022/10/23 02:43:54;;;;;;;13.10;7.43;;;;;;;12.60;95.84;101124.50;5051130;28;20438;-55
2022/10/23 02:46:32;;;;;;;14.75;7.93;;;;;;;12.71;96.00;101113.97;5050968;28;20029;-54
2022/10/23 02:49:17;;;;;;;17.05;8.18;;;;;;;12.72;96.06;101104.16;5052123;28;20025;-54
2022/10/23 02:52:12;;;;;;;12.88;7.18;;;;;;;12.69;96.34;101096.34;5030997;28;20480;-54
2022/10/23 02:55:02;;;;;;;12.43;7.80;;;;;;;12.69;96.45;101091.00;5046918;28;20476;-53
2022/10/23 02:57:37;;;;;;;13.02;7.40;;;;;;;12.70;96.40;101076.69;5050437;28;20040;-54
2022/10/23 03:00:12;;;;;;;19.23;8.45;;;;;;;12.71;96.37;101084.63;5051927;28;20044;-54
2022/10/23 03:02:56;;;;;;;16.98;8.13;;;;;;;12.79;96.00;101078.72;5049446;28;20557;-54
2022/10/23 03:05:28;;;;;;;14.45;7.45;;;;;;;12.81;96.06;101075.97;5030557;28;20449;-54
2022/10/23 03:07:54;;;;;;;16.48;8.02;;;;;;;12.84;96.05;101065.09;5047390;28;20098;-54
2022/10/23 03:10:19;;;;;;;13.68;7.68;;;;;;;12.84;95.54;101071.28;5083429;28;20484;-53
2022/10/23 03:12:46;;;;;;;18.73;8.32;;;;;;;12.79;95.50;101062.72;5051723;28;20025;-54
2022/10/23 03:15:14;;;;;;;10.68;6.65;;;;;;;12.76;95.50;101068.28;5031438;28;20067;-54
2022/10/23 03:17:40;;;;;;;11.88;7.28;;;;;;;12.79;95.50;101065.38;5050576;28;20025;-52
2022/10/23 03:20:09;;;;;;;11.02;7.25;;;;;;;12.62;95.73;101049.72;5051718;28;20024;-54
2022/10/23 03:22:35;;;;;;;17.85;7.35;;;;;;;12.77;95.92;101059.31;5048110;28;20029;-54
2022/10/23 03:25:00;;;;;;;12.55;7.07;;;;;;;12.76;95.81;101054.91;5042267;28;20037;-54
2022/10/23 03:27:27;;;;;;;16.08;7.75;;;;;;;12.73;95.56;101065.81;5036389;28;20041;-54
2022/10/23 03:29:52;;;;;;;15.20;7.05;;;;;;;12.72;95.96;101058.78;5037129;28;20025;-54
2022/10/23 03:32:17;;;;;;;15.02;8.05;;;;;;;12.73;95.78;101056.03;5051725;28;20376;-54
2022/10/23 03:34:43;;;;;;;12.90;8.20;;;;;;;12.78;95.99;101049.50;5050000;28;20060;-53
2022/10/23 03:37:09;;;;;;;14.30;6.97;;;;;;;12.81;95.85;101043.94;5051624;28;20060;-54
2022/10/23 03:39:37;;;;;;;12.80;7.15;;;;;;;12.77;96.09;101048.66;5050862;28;20067;-54
2022/10/23 03:42:03;;;;;;;14.15;7.90;;;;;;;12.81;96.40;101042.13;5033530;28;20029;-54
2022/10/23 03:44:33;;;;;;;11.13;8.20;;;;;;;12.77;96.01;101031.78;5050581;28;20056;-55
2022/10/23 03:46:58;;;;;;;11.70;7.82;;;;;;;12.81;96.07;101035.94;5037998;28;20583;-54
2022/10/23 03:49:24;;;;;;;13.02;8.05;;;;;;;12.79;96.21;101043.19;5031366;28;20026;-54
2022/10/23 03:51:52;;;;;;;12.70;7.53;;;;;;;12.73;96.18;101032.00;5030712;28;20033;-54
2022/10/23 03:54:25;;;;;;;12.55;7.70;;;;;;;12.76;96.81;101030.06;5029532;28;20034;-53
2022/10/23 03:56:51;;;;;;;10.50;7.38;;;;;;;12.77;96.30;101029.97;5047454;28;20396;-55
2022/10/23 03:59:17;;;;;;;17.17;8.05;;;;;;;12.72;96.64;101018.75;5051313;28;20112;-54
2022/10/23 04:01:42;;;;;;;15.27;8.40;;;;;;;12.76;97.03;101019.38;5051345;28;20564;-52
2022/10/23 04:04:08;;;;;;;13.48;7.70;;;;;;;12.76;96.94;101006.88;5051420;28;20033;-54
2022/10/23 04:06:37;;;;;;;13.90;8.20;;;;;;;12.72;96.88;101000.91;5047809;28;20033;-54
2022/10/23 04:09:05;;;;;;;13.80;7.50;;;;;;;12.71;97.30;100998.38;5050871;28;20049;-54
2022/10/23 04:11:31;;;;;;;12.90;8.35;;;;;;;12.75;97.13;100993.66;5049703;28;20036;-54
2022/10/23 04:13:56;;;;;;;13.82;8.07;;;;;;;12.73;97.33;100993.75;5051202;28;20109;-53
2022/10/23 04:16:25;;;;;;;17.25;7.55;;;;;;;12.75;97.28;100988.31;5049164;28;20036;-52
2022/10/23 04:18:53;;;;;;;11.88;8.05;;;;;;;12.79;97.00;100989.81;5051151;28;20025;-53
2022/10/23 04:21:19;;;;;;;12.60;7.80;;;;;;;12.77;97.11;100986.41;5043110;28;20060;-54
2022/10/23 04:23:46;;;;;;;14.43;7.35;;;;;;;12.78;96.93;100999.63;5031421;28;20492;-53
2022/10/23 04:26:12;;;;;;;10.95;7.53;;;;;;;12.76;97.22;101006.03;5048609;28;20068;-54
2022/10/23 04:28:38;;;;;;;10.48;6.80;;;;;;;12.72;97.44;100997.41;5047768;28;20543;-53
2022/10/23 04:31:03;;;;;;;14.55;8.07;;;;;;;12.73;97.29;101001.75;5062970;28;20056;-54
2022/10/23 04:33:29;;;;;;;11.35;7.47;;;;;;;12.78;97.31;100999.63;5031194;28;20103;-54
2022/10/23 04:35:54;;;;;;;13.23;7.93;;;;;;;12.79;97.20;100997.81;5034562;28;20040;-54
2022/10/23 04:38:20;;;;;;;16.50;7.95;;;;;;;12.79;97.31;100997.81;5049438;28;20072;-54
2022/10/23 04:40:48;;;;;;;10.23;7.72;;;;;;;12.76;97.25;100990.88;5034372;28;20025;-53
2022/10/23 04:43:13;;;;;;;9.40;7.07;;;;;;;12.74;98.01;100990.16;5034708;28;20125;-54
2022/10/23 04:45:39;;;;;;;11.30;7.32;;;;;;;12.74;97.88;100992.81;5034288;28;20029;-54
2022/10/23 04:48:05;;;;;;;11.90;7.30;;;;;;;12.78;97.76;100990.78;5080088;28;20396;-55
2022/10/23 04:50:36;;;;;;;11.75;7.80;;;;;;;12.74;97.90;100984.81;5054290;28;20033;-54
2022/10/23 04:53:01;;;;;;;13.52;7.63;;;;;;;12.76;97.99;100984.69;5035216;28;20145;-54
2022/10/23 04:55:26;;;;;;;9.85;7.55;;;;;;;12.76;97.95;100979.34;5053939;28;20032;-54
2022/10/23 04:57:52;;;;;;;15.15;8.75;;;;;;;12.77;97.97;100975.75;5051100;28;20124;-54
2022/10/23 05:00:18;;;;;;;11.40;7.68;;;;;;;12.79;98.08;100977.31;5053053;28;20032;-54
2022/10/23 05:02:44;;;;;;;10.57;7.60;;;;;;;12.79;97.88;100971.97;5053184;28;20029;-54
2022/10/23 05:05:10;;;;;;;13.70;8.05;;;;;;;12.82;98.22;100976.25;5052900;28;20057;-53
2022/10/23 05:07:36;;;;;;;10.18;7.45;;;;;;;12.79;98.04;100969.31;5052380;28;20464;-53
2022/10/23 05:10:02;;;;;;;13.65;8.00;;;;;;;12.77;98.02;100971.25;5053431;28;20045;-54
2022/10/23 05:12:27;;;;;;;14.90;8.07;;;;;;;12.79;98.20;100971.97;5072759;28;20038;-54
2022/10/23 05:14:53;;;;;;;12.52;7.65;;;;;;;12.76;97.94;100964.19;5048217;28;20048;-54
2022/10/23 05:17:25;;;;;;;15.55;7.22;;;;;;;12.77;98.22;100971.25;5054089;28;20043;-54
2022/10/23 05:19:56;;;;;;;14.27;7.68;;;;;;;12.77;98.39;100965.91;5037896;28;20489;-54
2022/10/23 05:22:26;;;;;;;15.77;7.88;;;;;;;12.78;98.38;100956.06;5033877;28;20032;-54
2022/10/23 05:24:53;;;;;;;13.00;7.55;;;;;;;12.79;98.49;100963.97;5033632;28;20048;-54
2022/10/23 05:27:19;;;;;;;12.60;8.32;;;;;;;12.74;98.62;100966.13;5048995;28;20033;-53
2022/10/23 05:29:45;;;;;;;18.23;7.50;;;;;;;12.77;98.71;100960.56;5054409;28;20037;-54
2022/10/23 05:32:12;;;;;;;13.18;7.57;;;;;;;12.76;98.81;100960.66;5032655;28;20033;-54
2022/10/23 05:34:39;;;;;;;9.75;7.35;;;;;;;12.78;98.46;100958.75;5033830;28;20017;-53
2022/10/23 05:37:08;;;;;;;11.02;7.35;;;;;;;12.75;98.83;100950.97;5033709;28;20505;-53
2022/10/23 05:39:34;;;;;;;9.57;7.30;;;;;;;12.73;98.72;100951.06;5038469;28;20024;-55
2022/10/23 05:41:59;;;;;;;11.75;7.20;;;;;;;12.69;98.84;100945.09;5032371;28;20480;-54
2022/10/23 05:44:24;;;;;;;10.32;7.38;;;;;;;12.72;99.20;100946.69;5050600;28;20030;-54
2022/10/23 05:46:50;;;;;;;18.40;7.75;;;;;;;12.71;98.92;100943.16;5033289;28;20108;-54
2022/10/23 05:49:15;;;;;;;11.98;6.78;;;;;;;12.74;99.08;100942.09;5034210;28;20499;-54
2022/10/23 05:51:41;;;;;;;9.45;6.47;;;;;;;12.78;98.78;100940.91;5033382;28;20036;-54
2022/10/23 05:54:07;;;;;;;12.82;7.40;;;;;;;12.79;98.66;100945.28;5033571;28;20025;-55
2022/10/23 05:56:35;;;;;;;7.97;6.90;;;;;;;12.76;98.88;100948.16;5045020;28;20025;-54
2022/10/23 05:59:03;;;;;;;14.50;7.28;;;;;;;12.77;98.95;100941.88;5051455;28;20540;-54
2022/10/23 06:01:28;;;;;;;14.55;7.13;;;;;;;12.75;98.98;100932.28;5048871;28;20580;-54
2022/10/23 06:03:54;;;;;;;9.15;7.25;;;;;;;12.77;98.94;100935.69;5032864;28;20120;-54
2022/10/23 06:06:20;;;;;;;13.07;7.07;;;;;;;12.75;98.92;100924.28;5051521;28;20357;-54
2022/10/23 06:08:45;;;;;;;12.10;7.47;;;;;;;12.74;98.84;100920.75;5051422;28;20075;-54
2022/10/23 06:11:13;;;;;;;12.85;7.50;;;;;;;12.76;99.21;100929.47;5050206;28;20032;-55
2022/10/23 06:13:44;;;;;;;17.83;7.88;;;;;;;12.72;99.34;100920.84;5050735;28;20067;-54
2022/10/23 06:16:10;;;;;;;11.38;7.18;;;;;;;12.73;99.40;100919.03;5050283;28;20025;-54
2022/10/23 06:18:36;;;;;;;15.82;7.90;;;;;;;12.71;99.54;100919.16;5050982;28;20025;-53
2022/10/23 06:21:02;;;;;;;11.48;6.75;;;;;;;12.72;99.62;100920.84;5083258;28;20494;-54
2022/10/23 06:23:33;;;;;;;15.10;7.57;;;;;;;12.78;99.42;100916.88;5051163;28;20396;-54
2022/10/23 06:25:59;;;;;;;17.77;7.88;;;;;;;12.80;99.13;100916.81;5050552;28;20040;-54
2022/10/23 06:28:25;;;;;;;12.95;7.00;;;;;;;12.82;99.10;100913.03;5049232;28;20596;-54
2022/10/23 06:30:53;;;;;;;14.68;7.25;;;;;;;12.81;99.24;100916.69;5052252;28;20021;-55
2022/10/23 06:33:18;;;;;;;10.85;6.97;;;;;;;12.80;99.54;100908.78;5054009;28;20028;-54
2022/10/23 06:35:46;;;;;;;11.48;7.15;;;;;;;12.83;99.45;100900.56;5058683;28;20379;-54
2022/10/23 06:38:15;;;;;;;12.52;6.57;;;;;;;12.87;99.25;100900.22;5050625;28;20032;-54
2022/10/23 06:40:41;;;;;;;12.13;6.63;;;;;;;12.88;99.18;100899.28;5030468;28;20052;-54
2022/10/23 06:43:09;;;;;;;11.20;6.53;;;;;;;12.91;98.75;100895.50;5031280;28;20033;-54
2022/10/23 06:45:35;;;;;;;9.13;6.60;;;;;;;12.92;98.93;100892.75;5042181;28;20040;-52
2022/10/23 06:48:01;;;;;;;17.75;7.60;;;;;;;12.89;98.84;100882.28;5033680;28;20020;-54
2022/10/23 06:50:29;;;;;;;10.57;6.70;;;;;;;12.94;98.92;100881.94;5051232;28;20033;-55
2022/10/23 06:52:55;;;;;;;12.43;6.53;;;;;;;12.92;99.03;100875.88;5050911;28;20024;-54
2022/10/23 06:55:20;;;;;;;8.48;6.43;;;;;;;12.98;98.65;100887.94;5051622;28;20151;-54
2022/10/23 06:57:46;;;;;;;9.68;5.90;;;;;;;13.02;98.59;100884.06;5050653;28;20166;-54
2022/10/23 07:00:12;;;;;;;12.55;7.03;;;;;;;12.99;98.50;100874.44;5050135;28;20036;-54
2022/10/23 07:02:40;;;;;;;8.80;5.75;;;;;;;13.02;98.47;100874.22;5048113;28;20488;-55
2022/10/23 07:05:09;;;;;;;11.52;6.53;;;;;;;13.04;98.48;100882.13;5051558;28;20025;-53
2022/10/23 07:07:34;;;;;;;12.75;6.50;;;;;;;13.07;98.53;100882.75;5049690;28;20472;-54
2022/10/23 07:10:02;;;;;;;12.10;5.97;;;;;;;13.04;98.79;100880.31;5049808;28;20052;-52
2022/10/23 07:12:28;;;;;;;10.63;5.93;;;;;;;13.05;98.47;100875.81;5050717;28;20025;-54
2022/10/23 07:14:55;;;;;;;9.95;5.82;;;;;;;13.12;98.33;100871.75;5051644;28;20112;-54
2022/10/23 07:17:21;;;;;;;9.05;5.78;;;;;;;13.16;98.55;100875.91;5051282;28;20021;-54
2022/10/23 07:19:50;;;;;;;11.32;5.90;;;;;;;13.18;98.48;100872.16;5050888;28;20025;-54
2022/10/23 07:22:15;;;;;;;11.02;6.57;;;;;;;13.16;98.18;100863.38;5051117;28;20033;-54
2022/10/23 07:24:40;;;;;;;9.75;6.18;;;;;;;13.23;98.28;100868.28;5051431;28;20086;-54
2022/10/23 07:27:06;;;;;;;8.50;5.18;;;;;;;13.24;98.08;100864.66;5051346;28;20404;-53
2022/10/23 07:29:32;;;;;;;8.55;6.03;;;;;;;13.25;98.40;100863.69;5051106;28;20020;-54
2022/10/23 07:32:03;;;;;;;9.80;5.75;;;;;;;13.27;98.30;100862.63;5050090;28;20413;-54
2022/10/23 07:34:29;;;;;;;10.45;5.72;;;;;;;13.30;98.02;100858.88;5049795;28;20123;-54
2022/10/23 07:36:55;;;;;;;11.55;6.18;;;;;;;13.32;97.89;100854.25;5049676;28;20029;-54
2022/10/23 07:39:21;;;;;;;13.82;5.55;;;;;;;13.35;97.90;100857.59;5051057;28;20036;-53
2022/10/23 07:41:47;;;;;;;10.18;5.10;;;;;;;13.39;97.52;100856.38;5052039;28;20037;-53
2022/10/23 07:44:13;;;;;;;11.25;5.50;;;;;;;13.43;97.47;100853.47;5050853;28;20037;-54
2022/10/23 07:46:39;;;;;;;12.45;6.03;;;;;;;13.44;97.46;100852.50;5051166;28;20040;-54
2022/10/23 07:49:05;;;;;;;14.82;5.00;;;;;;;13.48;97.45;100854.00;5050067;28;20087;-54
2022/10/23 07:51:35;;;;;;;8.05;4.50;;;;;;;13.50;97.03;100846.69;5049855;28;20040;-52
2022/10/23 07:54:00;;;;;;;9.82;5.15;;;;;;;13.55;96.89;100847.19;5038833;28;20060;-52
2022/10/23 07:56:30;;;;;;;8.30;4.85;;;;;;;13.55;97.34;100850.72;5030486;28;20075;-54
2022/10/23 07:58:56;;;;;;;11.75;4.80;;;;;;;13.57;96.90;100851.47;5046499;28;20112;-54
2022/10/23 08:01:36;;;;;;;10.77;5.63;;;;;;;13.63;96.77;100853.66;5038562;28;20116;-53
2022/10/23 08:04:02;;;;;;;12.77;5.20;;;;;;;13.68;96.43;100848.00;5048491;28;20116;-51
2022/10/23 08:06:28;;;;;;;10.15;5.60;;;;;;;13.70;96.64;100850.53;5051317;28;20112;-50
2022/10/23 08:08:54;;;;;;;10.15;5.20;;;;;;;13.75;96.09;100848.38;5050682;28;20388;-52
2022/10/23 08:11:25;;;;;;;7.88;4.78;;;;;;;13.78;95.92;100848.97;5054685;28;20043;-54
2022/10/23 08:13:52;;;;;;;14.40;5.88;;;;;;;13.81;96.17;100848.75;5049407;28;20529;-51
2022/10/23 08:16:19;;;;;;;10.73;5.45;;;;;;;13.82;95.92;100838.91;5067164;28;20027;-54
2022/10/23 08:18:47;;;;;;;8.05;5.10;;;;;;;13.92;95.98;100847.06;5053751;28;20549;-54
2022/10/23 08:21:12;;;;;;;9.40;5.25;;;;;;;13.94;95.36;100850.47;5054469;28;20027;-54
2022/10/23 08:23:37;;;;;;;10.73;4.97;;;;;;;13.96;95.10;100846.72;5055180;28;20037;-54
2022/10/23 08:26:04;;;;;;;13.65;5.72;;;;;;;13.99;95.08;100841.13;5054350;28;20037;-54
2022/10/23 08:28:31;;;;;;;12.68;5.47;;;;;;;14.01;95.11;100846.38;5054498;28;20025;-54
2022/10/23 08:30:57;;;;;;;9.13;5.30;;;;;;;14.01;95.00;100839.19;5054428;28;20070;-52
2022/10/23 08:33:23;;;;;;;7.85;5.20;;;;;;;14.02;95.00;100837.34;5055496;28;20484;-54
2022/10/23 08:35:51;;;;;;;10.98;5.55;;;;;;;14.01;94.91;100836.50;5053525;28;20024;-54
2022/10/23 08:38:17;;;;;;;11.85;5.20;;;;;;;14.04;94.73;100832.75;5054862;28;20468;-54
2022/10/23 08:40:44;;;;;;;8.73;5.22;;;;;;;14.02;95.30;100824.00;5053876;28;20044;-53
2022/10/23 08:43:10;;;;;;;11.38;5.55;;;;;;;14.04;95.04;100814.03;5054591;28;20024;-53
2022/10/23 08:45:43;;;;;;;10.18;5.32;;;;;;;14.07;95.12;100821.81;5054597;28;20037;-54
2022/10/23 08:48:32;;;;;;;11.23;5.50;;;;;;;14.10;95.24;100810.88;5053284;28;20031;-53
2022/10/23 08:51:12;;;;;;;;;;;;;;;14.16;94.86;100814.91;5048007;28;20116;-52
2022/10/23 08:53:52;;;;;;;10.48;5.95;;;;;;;14.17;94.58;100817.44;5054402;28;19920;-53
2022/10/23 08:56:25;;;;;;;9.88;5.60;;;;;;;14.19;94.85;100812.81;5052050;28;20035;-54
2022/10/23 08:59:06;;;;;;;8.70;5.82;;;;;;;14.20;94.55;100811.84;5052753;28;20361;-53
2022/10/23 09:01:38;;;;;;;7.53;4.97;;;;;;;14.23;94.46;100802.72;5054276;28;20044;-54
2022/10/23 09:04:04;;;;;;;10.00;5.40;;;;;;;14.22;94.15;100801.88;5053427;28;20020;-53
2022/10/23 09:06:38;;;;;;;9.75;5.53;;;;;;;14.24;94.45;100793.75;5051222;28;20040;-54
2022/10/23 09:09:23;;;;;;;9.38;5.40;;;;;;;14.27;95.13;100793.50;5053470;28;20134;-54
2022/10/23 09:12:22;;;;;;;9.73;5.32;;;;;;;14.32;94.80;100785.94;5054265;28;20029;-54
2022/10/23 09:15:03;;;;;;;7.55;5.30;;;;;;;14.38;93.76;100779.25;5050321;28;20032;-54
2022/10/23 09:17:39;;;;;;;9.10;5.30;;;;;;;14.41;93.83;100781.69;5054313;28;20040;-54
2022/10/23 09:20:25;;;;;;;9.13;5.43;;;;;;;14.46;93.81;100777.66;5052604;28;20024;-54
2022/10/23 09:23:17;;;;;;;9.43;5.68;;;;;;;14.50;93.27;100771.09;5053680;28;20025;-54
2022/10/23 09:25:45;;;;;;;10.05;5.22;;;;;;;14.47;93.23;100768.69;5052575;28;20127;-54
2022/10/23 09:28:26;;;;;;;11.35;5.45;;;;;;;14.46;93.23;100758.06;5052281;28;20104;-54
2022/10/23 09:30:51;;;;;;;13.65;5.45;;;;;;;14.53;93.45;100765.53;5053403;28;20036;-55
2022/10/23 09:33:21;;;;;;;9.43;5.30;;;;;;;14.53;93.24;100759.34;5053525;28;20399;-54
2022/10/23 09:36:08;;;;;;;8.93;5.85;;;;;;;14.57;93.29;100743.88;5053790;28;20035;-54
2022/10/23 09:38:46;;;;;;;10.88;5.65;;;;;;;14.43;92.71;100718.19;5053134;28;20021;-54
2022/10/23 09:41:15;;;;;;;11.15;6.05;;;;;;;14.60;92.15;100730.25;5052346;28;20029;-54
2022/10/23 09:43:42;;;;;;;9.68;5.82;;;;;;;14.56;92.92;100728.75;5053336;28;20396;-53
2022/10/23 09:46:10;;;;;;;11.10;5.80;;;;;;;14.63;92.42;100738.84;5053880;28;20021;-54
2022/10/23 09:48:36;;;;;;;8.70;5.00;;;;;;;14.64;92.21;100747.72;5053144;28;20546;-54
2022/10/23 09:51:22;;;;;;;8.45;5.85;;;;;;;14.66;93.03;100743.97;5053214;28;20025;-54
2022/10/23 09:53:54;;;;;;;10.77;6.05;;;;;;;14.63;93.58;100730.81;5056675;28;20048;-54
2022/10/23 09:56:22;;;;;;;10.10;5.40;;;;;;;14.75;92.55;100739.69;5068287;28;20029;-53
2022/10/23 09:58:55;;;;;;;9.20;5.35;;;;;;;14.80;92.38;100723.25;5073154;28;20399;-54
2022/10/23 10:01:26;;;;;;;10.75;5.25;;;;;;;14.83;92.21;100712.28;5072007;28;20020;-52
2022/10/23 10:03:52;;;;;;;8.45;5.03;;;;;;;14.85;92.85;100708.47;5071374;28;20463;-54
2022/10/23 10:06:25;;;;;;;9.50;6.03;;;;;;;14.88;92.04;100710.03;5052872;28;20090;-53
2022/10/23 10:08:56;;;;;;;9.77;5.00;;;;;;;14.91;91.99;100701.75;5051573;28;20060;-53
2022/10/23 10:11:32;;;;;;;12.35;4.95;;;;;;;14.95;91.72;100700.53;5051866;28;20033;-54
2022/10/23 10:13:58;;;;;;;10.95;4.45;;;;;;;14.95;91.59;100692.50;5053236;28;20099;-54
2022/10/23 10:16:42;;;;;;;7.18;5.22;;;;;;;14.97;92.31;100686.03;5052724;28;20033;-54
2022/10/23 10:19:16;;;;;;;9.27;5.10;;;;;;;14.96;91.66;100678.13;5052397;28;20024;-53
2022/10/23 10:21:51;;;;;;;8.55;4.70;;;;;;;14.99;91.30;100672.50;5052940;28;20033;-53
2022/10/23 10:24:19;;;;;;;7.72;4.32;;;;;;;14.99;91.23;100661.78;5050796;28;20035;-54
2022/10/23 10:27:03;;;;;;;11.10;4.35;;;;;;;15.07;91.11;100672.72;5051820;28;20031;-54
2022/10/23 10:29:45;;;;;;;10.98;6.35;;;;;;;15.12;90.58;100666.97;5052398;28;20211;-53
2022/10/23 10:32:23;;;;;;;9.00;4.38;;;;;;;15.15;90.61;100680.97;5050737;28;20057;-54
2022/10/23 10:35:07;;;;;;;9.68;4.20;;;;;;;15.22;90.76;100681.28;5051702;28;20021;-54
2022/10/23 10:38:09;;;;;;;8.60;3.65;;;;;;;15.33;90.50;100664.28;5049253;28;20424;-53
2022/10/23 10:40:42;;;;;;;22.70;7.97;;;;;;;15.43;89.98;100665.19;5047760;28;20100;-54
2022/10/23 10:43:19;;;;;;;16.70;6.55;;;;;;;15.55;88.75;100664.09;5052709;28;20021;-54
2022/10/23 10:45:56;;;;;;;7.97;3.83;;;;;;;15.66;88.46;100664.03;5048689;28;20512;-52
2022/10/23 10:48:40;;;;;;;7.30;3.92;;;;;;;15.78;87.79;100662.13;5032247;28;20108;-54
2022/10/23 10:51:13;;;;;;;16.83;5.35;;;;;;;15.95;87.24;100655.28;5032132;28;20029;-54
2022/10/23 10:53:58;;;;;;;11.80;4.03;;;;;;;16.12;86.02;100646.59;5031996;28;20128;-53
2022/10/23 10:56:28;;;;;;;9.15;4.28;;;;;;;16.31;84.97;100643.06;5050565;28;20072;-54
2022/10/23 10:59:12;;;;;;;9.98;4.38;;;;;;;16.47;84.39;100639.88;5050615;28;20396;-53
2022/10/23 11:01:49;;;;;;;10.00;5.00;;;;;;;16.54;84.19;100630.25;5048834;28;20468;-52
2022/10/23 11:04:44;;;;;;;7.32;3.80;;;;;;;16.71;83.63;100652.88;5031430;28;20029;-52
2022/10/23 11:07:16;;;;;;;7.28;4.15;;;;;;;16.73;82.08;100644.66;5043893;28;20139;-54
2022/10/23 11:09:42;;;;;;;11.15;4.40;;;;;;;16.69;82.69;100632.50;5050890;28;20400;-54
2022/10/23 11:12:25;;;;;;;6.78;3.75;;;;;;;16.63;82.30;100633.94;5034606;28;20044;-54
2022/10/23 11:14:50;;;;;;;9.20;4.60;;;;;;;16.65;83.03;100633.78;5042811;28;20470;-54
2022/10/23 11:17:25;;;;;;;11.38;4.18;;;;;;;16.78;82.98;100627.16;5050403;28;20059;-54
2022/10/23 11:20:02;;;;;;;7.95;4.15;;;;;;;16.91;82.24;100631.38;5051616;28;20025;-52
2022/10/23 11:22:41;;;;;;;11.02;3.95;;;;;;;17.00;81.91;100635.91;5049088;28;20119;-50
2022/10/23 11:25:15;;;;;;;;;;;;;;;17.12;82.70;100617.78;5045656;28;20033;-51
2022/10/23 11:28:05;;;;;;;8.52;3.88;;;;;;;17.11;80.58;100626.84;5066339;28;19912;-52
2022/10/23 11:30:55;;;;;;;8.05;3.67;;;;;;;17.12;80.27;100607.03;5041372;28;20507;-54
2022/10/23 11:33:32;;;;;;;6.50;3.45;;;;;;;17.21;80.06;100600.81;5031519;28;20531;-53
2022/10/23 11:36:16;;;;;;;8.88;3.97;;;;;;;17.30;79.13;100581.09;5042907;28;20033;-53